CheckWX is a tool to help pilots better visualize weather data.  It is not intended as a substitute for an official pre-flight weather briefing.

06:56:18 UTC

NFNA TAF
Nausori International Airport
Nausori, Fiji
TAF NFNA 190510Z 1906/2006 12010KT 9999 SCT020 BKN045 PROB30 TEMPO 1912/1918 5000 SHRA BKN015

Jun-19@
06:00 UTC

Jun-19 @ 06:00 UTC

Jun-20@
06:00 UTC

Jun-20 @ 06:00 UTC

TAF NFNA 190510Z 1906/2006 12010KT 9999 SCT020 BKN045
Wind
  • 120° at 10 KTS
Cloud Levels
  • Scattered at 2,000' AGL
  • Broken at 4,500' AGL

Jun-19@
12:00 UTC

Jun-19 @ 12:00 UTC

Jun-19@
18:00 UTC

Jun-19 @ 18:00 UTC

PROB30 TEMPO 1912/1918 5000 SHRA BKN015

Temporary - 30% Likelihood

Temporary - 30% Likelihood during this time.

Conditions
Rain
Cloud Levels
  • Broken at 1,500' AGL